Time;durP1;ratioP1;P1;durP2;ratioP2;P2;SDS_P1;SDS_P2;PMS_P1;PMS_P2;Temp;Humidity;BMP_temperature;BMP_pressure;BME280_temperature;BME280_humidity;BME280_pressure;Samples;Min_cycle;Max_cycle;Signal;HPM_P1;HPM_P2
2023/02/26 00:01:15;;;;;;;0.60;0.60;;;0.50;99.90;;;;;;4958322;28;20027;-74
2023/02/26 00:03:41;;;;;;;4.07;1.15;;;0.40;99.90;;;;;;4971318;28;20034;-74
2023/02/26 00:06:07;;;;;;;3.25;1.65;;;0.40;99.90;;;;;;4975279;28;20031;-74
2023/02/26 00:08:33;;;;;;;0.95;0.85;;;0.40;99.90;;;;;;4981873;28;20027;-74
2023/02/26 00:11:02;;;;;;;6.28;1.30;;;0.40;99.90;;;;;;4973523;28;20065;-74
2023/02/26 00:13:29;;;;;;;6.72;0.93;;;0.40;99.90;;;;;;4982019;28;20056;-74
2023/02/26 00:16:22;;;;;;;2.90;0.82;;;0.30;99.90;;;;;;4990200;28;20026;-74
2023/02/26 00:18:48;;;;;;;0.65;0.40;;;0.30;99.90;;;;;;4969230;28;20034;-74
2023/02/26 00:21:19;;;;;;;0.45;0.45;;;0.40;99.90;;;;;;4990907;28;20499;-74
2023/02/26 00:23:45;;;;;;;4.57;1.08;;;0.50;99.90;;;;;;4981403;28;20475;-74
2023/02/26 00:26:11;;;;;;;0.43;0.43;;;0.40;99.90;;;;;;4990451;28;20038;-75
2023/02/26 00:28:38;;;;;;;0.55;0.43;;;0.50;99.90;;;;;;4981543;28;20467;-74
2023/02/26 00:31:05;;;;;;;0.70;0.43;;;0.50;99.90;;;;;;4990025;28;20112;-74
2023/02/26 00:33:31;;;;;;;1.30;0.82;;;0.40;99.90;;;;;;4986988;28;20402;-74
2023/02/26 00:36:15;;;;;;;1.15;0.57;;;0.40;99.90;;;;;;4990173;28;20092;-74
2023/02/26 00:38:45;;;;;;;1.25;0.65;;;0.40;99.90;;;;;;4979679;28;20198;-74
2023/02/26 00:41:14;;;;;;;3.55;1.05;;;0.30;99.90;;;;;;4957271;28;20092;-75
2023/02/26 00:43:40;;;;;;;1.70;1.15;;;0.30;99.90;;;;;;4981137;28;20035;-74
2023/02/26 00:46:27;;;;;;;5.15;1.02;;;0.30;99.90;;;;;;4990131;28;20034;-75
2023/02/26 00:49:21;;;;;;;1.67;1.42;;;0.20;99.90;;;;;;4964628;28;20046;-74
2023/02/26 00:51:55;;;;;;;1.77;1.27;;;0.10;99.90;;;;;;4986144;28;20039;-74
2023/02/26 00:54:29;;;;;;;6.75;1.13;;;0.20;99.90;;;;;;4967868;28;20042;-74
2023/02/26 00:56:58;;;;;;;1.27;0.82;;;0.10;99.90;;;;;;4985535;28;20026;-73
2023/02/26 00:59:24;;;;;;;0.88;0.63;;;0.20;99.90;;;;;;4983976;28;20046;-74
2023/02/26 01:01:52;;;;;;;1.88;1.35;;;0.10;99.90;;;;;;4985681;28;20030;-74
2023/02/26 01:04:21;;;;;;;1.83;0.75;;;0.10;99.90;;;;;;4980678;28;20066;-73
2023/02/26 01:06:56;;;;;;;2.05;0.98;;;0.00;99.90;;;;;;4972918;28;20026;-74
2023/02/26 01:09:32;;;;;;;0.30;0.30;;;0.00;99.90;;;;;;4980594;28;20030;-74
2023/02/26 01:12:06;;;;;;;5.13;0.88;;;0.00;99.90;;;;;;4973769;28;20522;-74
2023/02/26 01:14:32;;;;;;;1.40;0.70;;;0.00;99.90;;;;;;4983848;28;20033;-74
2023/02/26 01:17:14;;;;;;;2.42;1.80;;;0.00;99.90;;;;;;4985352;28;20042;-74
2023/02/26 01:19:53;;;;;;;1.60;1.50;;;0.00;99.90;;;;;;4983700;28;20122;-74
2023/02/26 01:22:32;;;;;;;1.98;0.63;;;0.00;99.90;;;;;;4974009;28;20081;-74
2023/02/26 01:25:10;;;;;;;1.27;0.93;;;0.00;99.90;;;;;;4967675;28;20135;-74
2023/02/26 01:27:36;;;;;;;1.13;0.65;;;0.00;99.90;;;;;;4984999;28;20049;-74
2023/02/26 01:30:05;;;;;;;0.50;0.45;;;0.00;99.90;;;;;;4983445;28;20537;-74
2023/02/26 01:33:17;;;;;;;3.60;0.77;;;-0.10;99.90;;;;;;4984956;28;20090;-73
2023/02/26 01:35:50;;;;;;;1.10;0.93;;;0.00;99.90;;;;;;4987115;28;20046;-73
2023/02/26 01:38:30;;;;;;;2.00;1.08;;;0.00;99.90;;;;;;4970073;28;20030;-73
2023/02/26 01:41:17;;;;;;;1.13;0.75;;;0.00;99.90;;;;;;4972073;28;20034;-74
2023/02/26 01:44:07;;;;;;;13.25;0.75;;;0.00;99.90;;;;;;4986173;28;20100;-73
2023/02/26 01:46:43;;;;;;;2.30;0.77;;;0.10;99.90;;;;;;4972276;28;20027;-74
2023/02/26 01:49:16;;;;;;;0.93;0.52;;;0.10;99.90;;;;;;4963741;28;20026;-74
2023/02/26 01:51:56;;;;;;;9.63;0.68;;;0.00;99.90;;;;;;4973961;28;20038;-73
2023/02/26 01:54:27;;;;;;;4.45;0.93;;;0.10;99.90;;;;;;4966985;28;20022;-74
2023/02/26 01:57:15;;;;;;;1.52;0.90;;;0.10;99.90;;;;;;4984846;28;20455;-73
2023/02/26 01:59:46;;;;;;;3.00;1.40;;;0.00;99.90;;;;;;4983005;28;20109;-74
2023/02/26 02:02:15;;;;;;;1.02;0.95;;;0.00;99.90;;;;;;4972561;28;20119;-74
2023/02/26 02:04:42;;;;;;;0.28;0.28;;;0.00;99.90;;;;;;4963570;28;20474;-74
2023/02/26 02:07:08;;;;;;;1.55;1.05;;;0.00;99.90;;;;;;4982808;28;20034;-74
2023/02/26 02:09:34;;;;;;;1.00;0.90;;;0.00;99.90;;;;;;4976583;28;20023;-74
2023/02/26 02:12:12;;;;;;;2.60;1.42;;;0.00;99.90;;;;;;4978137;28;20045;-73
2023/02/26 02:15:04;;;;;;;12.30;2.25;;;0.00;99.90;;;;;;4965552;28;20061;-74
2023/02/26 02:18:03;;;;;;;1.67;0.68;;;0.00;99.90;;;;;;4957460;28;20054;-73
2023/02/26 02:21:35;;;;;;;0.82;0.80;;;-0.10;99.90;;;;;;4968434;28;20045;-74
2023/02/26 02:24:13;;;;;;;;;;;0.00;99.90;;;;;;4966256;28;20054;-74
2023/02/26 02:27:18;;;;;;;0.20;0.20;;;0.00;99.90;;;;;;4970119;28;19920;-74
2023/02/26 02:30:21;;;;;;;0.68;0.40;;;0.00;99.90;;;;;;4963414;28;20035;-74
2023/02/26 02:33:09;;;;;;;0.45;0.30;;;0.10;99.90;;;;;;4970846;28;20056;-74
2023/02/26 02:35:47;;;;;;;0.47;0.47;;;0.20;99.90;;;;;;4970132;28;20026;-74
2023/02/26 02:38:20;;;;;;;1.60;0.95;;;0.10;99.90;;;;;;4970646;28;20798;-74
2023/02/26 02:40:53;;;;;;;8.48;0.77;;;0.10;99.90;;;;;;4950132;28;20699;-74
2023/02/26 02:43:26;;;;;;;0.55;0.45;;;0.20;99.90;;;;;;4969189;28;20117;-75
2023/02/26 02:46:10;;;;;;;1.85;0.60;;;0.30;99.90;;;;;;4971092;28;20039;-74
2023/02/26 02:48:47;;;;;;;0.65;0.57;;;0.30;99.90;;;;;;4962808;28;20039;-74
2023/02/26 02:51:24;;;;;;;3.00;1.15;;;0.20;99.90;;;;;;4988925;28;20030;-74
2023/02/26 02:53:58;;;;;;;3.03;0.73;;;0.20;99.90;;;;;;4979843;28;20097;-74
2023/02/26 02:56:34;;;;;;;4.07;0.70;;;0.10;99.90;;;;;;4958504;28;20049;-74
2023/02/26 02:59:40;;;;;;;1.05;0.95;;;0.10;99.90;;;;;;4964448;28;20049;-74
2023/02/26 03:02:27;;;;;;;0.65;0.40;;;0.00;99.90;;;;;;4899737;29;20040;-74
2023/02/26 03:04:53;;;;;;;0.93;0.60;;;0.00;99.90;;;;;;4973307;28;20044;-73
2023/02/26 03:07:19;;;;;;;2.50;0.93;;;0.00;99.90;;;;;;4993796;28;20030;-74
2023/02/26 03:09:45;;;;;;;0.73;0.68;;;0.00;99.90;;;;;;4970256;28;20089;-74
2023/02/26 03:12:11;;;;;;;2.42;0.90;;;-0.10;99.90;;;;;;4966748;28;20041;-73
2023/02/26 03:14:38;;;;;;;6.90;1.67;;;-0.10;99.90;;;;;;4968874;28;20465;-74
2023/02/26 03:17:32;;;;;;;0.93;0.85;;;-0.10;99.90;;;;;;4976787;28;20048;-73
2023/02/26 03:20:41;;;;;;;3.95;0.70;;;-0.20;99.90;;;;;;4969931;28;20034;-74
2023/02/26 03:23:28;;;;;;;0.70;0.57;;;-0.20;99.90;;;;;;4977845;28;20418;-74
2023/02/26 03:26:02;;;;;;;0.85;0.55;;;-0.30;99.90;;;;;;4958522;28;20030;-74
2023/02/26 03:29:20;;;;;;;1.63;0.57;;;-0.30;99.90;;;;;;4972542;28;20038;-74
2023/02/26 03:32:01;;;;;;;2.00;0.40;;;-0.30;99.90;;;;;;4939692;28;20082;-74
2023/02/26 03:34:44;;;;;;;1.23;0.90;;;-0.30;99.90;;;;;;4965948;28;20368;-74
2023/02/26 03:37:32;;;;;;;1.75;0.60;;;-0.40;99.90;;;;;;4967509;28;20406;-75
2023/02/26 03:40:04;;;;;;;3.08;0.98;;;-0.30;99.90;;;;;;4953094;28;20471;-74
2023/02/26 03:43:07;;;;;;;0.70;0.50;;;-0.40;99.90;;;;;;4976579;28;20394;-74
2023/02/26 03:45:36;;;;;;;0.60;0.45;;;-0.40;99.90;;;;;;4971653;28;20019;-74
2023/02/26 03:48:06;;;;;;;1.10;0.80;;;-0.40;99.90;;;;;;4974753;28;20042;-74
2023/02/26 03:50:53;;;;;;;0.25;0.25;;;-0.30;99.90;;;;;;4954586;28;20033;-73
2023/02/26 03:53:38;;;;;;;1.23;0.77;;;-0.30;99.90;;;;;;4960562;28;20030;-74
2023/02/26 03:56:30;;;;;;;0.70;0.60;;;-0.30;99.90;;;;;;4960511;28;20031;-74
2023/02/26 03:58:56;;;;;;;;;;;-0.30;99.90;;;;;;4973625;28;20049;-74
2023/02/26 04:01:29;;;;;;;2.38;0.43;;;-0.30;99.90;;;;;;4969920;23;19926;-75
2023/02/26 04:04:02;;;;;;;0.60;0.60;;;-0.40;99.90;;;;;;4970723;28;20027;-75
2023/02/26 04:06:29;;;;;;;0.55;0.40;;;-0.40;99.90;;;;;;4951377;28;20026;-75
2023/02/26 04:08:55;;;;;;;3.08;1.73;;;-0.40;99.90;;;;;;4976731;28;20031;-75
2023/02/26 04:11:24;;;;;;;0.43;0.43;;;-0.40;99.90;;;;;;4944945;28;20031;-76
2023/02/26 04:13:50;;;;;;;0.20;0.20;;;-0.40;99.90;;;;;;4964318;28;20030;-76
2023/02/26 04:16:17;;;;;;;2.05;0.90;;;-0.50;99.90;;;;;;4971870;28;20042;-76
2023/02/26 04:18:43;;;;;;;0.77;0.60;;;-0.60;99.90;;;;;;4965281;28;20039;-76
2023/02/26 04:21:17;;;;;;;1.20;1.10;;;-0.60;99.90;;;;;;4956450;28;20042;-77
2023/02/26 04:23:43;;;;;;;0.20;0.20;;;-0.60;99.90;;;;;;4965256;28;20035;-76
2023/02/26 04:26:09;;;;;;;0.73;0.52;;;-0.60;99.90;;;;;;4956044;28;20038;-76
2023/02/26 04:28:36;;;;;;;1.63;0.95;;;-0.70;99.90;;;;;;4967491;28;20035;-76
2023/02/26 04:31:04;;;;;;;1.10;0.73;;;-0.80;99.90;;;;;;4955117;28;20035;-76
2023/02/26 04:33:31;;;;;;;1.15;0.80;;;-0.80;99.90;;;;;;4971972;28;20034;-76
2023/02/26 04:35:57;;;;;;;1.38;0.70;;;-0.80;99.90;;;;;;4971544;28;20122;-76
2023/02/26 04:38:23;;;;;;;4.57;1.08;;;-0.70;99.90;;;;;;4968709;28;20106;-76
2023/02/26 04:40:49;;;;;;;0.75;0.75;;;-0.70;99.90;;;;;;4953486;28;20039;-76
2023/02/26 04:43:16;;;;;;;0.80;0.43;;;-0.80;99.90;;;;;;4969603;28;20082;-77
2023/02/26 04:45:45;;;;;;;1.90;0.85;;;-0.80;99.90;;;;;;4952500;28;20038;-76
2023/02/26 04:48:13;;;;;;;1.30;0.60;;;-0.80;99.90;;;;;;4964642;28;20331;-76
2023/02/26 04:50:38;;;;;;;0.40;0.40;;;-0.80;99.90;;;;;;4971639;28;20023;-76
2023/02/26 04:53:04;;;;;;;0.85;0.50;;;-0.80;99.90;;;;;;4971284;28;20403;-76
2023/02/26 04:55:30;;;;;;;1.00;0.52;;;-0.80;99.90;;;;;;4972849;28;20034;-77
2023/02/26 04:57:56;;;;;;;2.83;0.77;;;-0.80;99.90;;;;;;4963555;28;20561;-76
2023/02/26 05:00:22;;;;;;;1.58;1.27;;;-0.80;99.90;;;;;;4972856;28;20501;-76
2023/02/26 05:02:47;;;;;;;1.13;0.85;;;-0.90;99.90;;;;;;4963263;28;20047;-76
2023/02/26 05:05:13;;;;;;;0.50;0.40;;;-0.90;99.90;;;;;;4971975;28;20073;-76
2023/02/26 05:07:39;;;;;;;0.45;0.43;;;-0.90;99.90;;;;;;4971013;28;20031;-77
2023/02/26 05:10:06;;;;;;;1.00;0.80;;;-0.90;99.90;;;;;;4954743;28;20090;-75
2023/02/26 05:12:32;;;;;;;3.15;1.02;;;-0.90;99.90;;;;;;4961011;28;20030;-76
2023/02/26 05:14:58;;;;;;;0.80;0.57;;;-0.90;99.90;;;;;;4968504;28;20390;-76
2023/02/26 05:17:24;;;;;;;1.58;0.93;;;-1.00;99.90;;;;;;4970485;28;20062;-77
2023/02/26 05:19:49;;;;;;;3.63;0.73;;;-1.00;99.90;;;;;;4956508;28;20062;-76
2023/02/26 05:22:16;;;;;;;0.88;0.68;;;-1.00;99.90;;;;;;4964060;28;20038;-76
2023/02/26 05:24:42;;;;;;;0.93;0.75;;;-1.00;99.90;;;;;;4957613;28;20502;-76
2023/02/26 05:27:08;;;;;;;0.68;0.50;;;-1.10;99.90;;;;;;4960982;28;20403;-77
2023/02/26 05:29:34;;;;;;;0.93;0.82;;;-1.10;99.90;;;;;;4965017;28;20027;-76
2023/02/26 05:32:01;;;;;;;1.50;0.85;;;-1.10;99.90;;;;;;4969837;28;20517;-76
2023/02/26 05:34:27;;;;;;;1.15;0.88;;;-1.20;99.90;;;;;;4964470;28;20055;-76
2023/02/26 05:36:52;;;;;;;1.63;0.95;;;-1.10;99.90;;;;;;4970413;28;20082;-76
2023/02/26 05:39:18;;;;;;;5.38;1.13;;;-1.10;99.90;;;;;;4960090;28;20039;-77
2023/02/26 05:41:45;;;;;;;0.90;0.47;;;-1.10;99.90;;;;;;4959648;28;20035;-77
2023/02/26 05:44:11;;;;;;;3.00;0.98;;;-1.10;99.90;;;;;;4970863;28;20023;-77
2023/02/26 05:46:37;;;;;;;0.55;0.55;;;-1.10;99.90;;;;;;4964563;28;20483;-78
2023/02/26 05:49:02;;;;;;;0.55;0.55;;;-1.10;99.90;;;;;;4961916;28;20031;-77
2023/02/26 05:51:28;;;;;;;0.55;0.52;;;-1.20;99.90;;;;;;4970351;28;20034;-77
2023/02/26 05:53:54;;;;;;;1.48;0.50;;;-1.20;99.90;;;;;;4962508;28;20034;-76
2023/02/26 05:56:20;;;;;;;2.42;0.95;;;-1.20;99.90;;;;;;4956722;28;20086;-77
2023/02/26 05:58:45;;;;;;;0.15;0.15;;;-1.10;99.90;;;;;;4955139;28;20035;-76
2023/02/26 06:01:11;;;;;;;3.03;1.30;;;-1.10;99.90;;;;;;4954547;28;20636;-77
2023/02/26 06:03:42;;;;;;;0.85;0.63;;;-1.10;99.90;;;;;;4970220;28;20391;-76
2023/02/26 06:06:13;;;;;;;1.08;0.50;;;-1.20;99.90;;;;;;4970051;28;20036;-76
2023/02/26 06:08:39;;;;;;;1.23;0.80;;;-1.30;99.90;;;;;;4964130;28;20031;-76
2023/02/26 06:11:05;;;;;;;0.73;0.70;;;-1.30;99.90;;;;;;4953167;28;20041;-76
2023/02/26 06:13:30;;;;;;;0.50;0.45;;;-1.30;99.90;;;;;;4963754;28;20027;-77
2023/02/26 06:15:56;;;;;;;2.05;0.85;;;-1.20;99.90;;;;;;4969762;28;20039;-77
2023/02/26 06:18:22;;;;;;;1.25;0.68;;;-1.20;99.90;;;;;;4967302;28;20023;-77
2023/02/26 06:20:48;;;;;;;1.10;0.82;;;-1.20;99.90;;;;;;4952078;28;20031;-76
2023/02/26 06:23:14;;;;;;;4.22;0.93;;;-1.30;99.90;;;;;;4968004;28;20392;-77
2023/02/26 06:25:41;;;;;;;0.57;0.47;;;-1.30;99.90;;;;;;4952379;28;20078;-77
2023/02/26 06:28:07;;;;;;;1.73;1.30;;;-1.30;99.90;;;;;;4961891;28;20054;-77
2023/02/26 06:30:34;;;;;;;1.45;0.95;;;-1.30;99.90;;;;;;4972192;28;20026;-76
2023/02/26 06:33:00;;;;;;;0.55;0.40;;;-1.30;99.90;;;;;;4965467;28;20039;-77
2023/02/26 06:35:28;;;;;;;1.55;0.88;;;-1.30;99.90;;;;;;4973978;28;20049;-76
2023/02/26 06:37:55;;;;;;;6.03;1.48;;;-1.40;99.90;;;;;;4965419;28;20042;-76
2023/02/26 06:40:22;;;;;;;0.10;0.10;;;-1.30;99.90;;;;;;4973920;28;20031;-77
2023/02/26 06:42:47;;;;;;;3.78;0.93;;;-1.20;99.90;;;;;;4965919;28;20110;-77
2023/02/26 06:45:13;;;;;;;0.20;0.20;;;-1.30;99.90;;;;;;4974668;28;20106;-77
2023/02/26 06:47:39;;;;;;;7.78;1.58;;;-1.30;99.90;;;;;;4973776;28;20038;-77
2023/02/26 06:50:06;;;;;;;0.75;0.55;;;-1.30;99.90;;;;;;4957257;28;20062;-77
2023/02/26 06:52:32;;;;;;;4.45;1.33;;;-1.30;99.90;;;;;;4963372;28;20495;-77
2023/02/26 06:54:58;;;;;;;1.70;1.20;;;-1.30;99.90;;;;;;4972581;28;20053;-74
2023/02/26 06:57:24;;;;;;;0.98;0.60;;;-1.20;99.90;;;;;;4970632;28;20026;-75
2023/02/26 06:59:50;;;;;;;1.15;0.65;;;-1.10;99.90;;;;;;4966689;28;20039;-74
2023/02/26 07:02:19;;;;;;;0.43;0.43;;;-1.10;99.90;;;;;;4966343;28;20403;-74
2023/02/26 07:04:45;;;;;;;0.20;0.20;;;-1.00;99.90;;;;;;4973451;28;20131;-74
2023/02/26 07:07:11;;;;;;;0.25;0.22;;;-0.90;99.90;;;;;;4971310;28;20162;-76
2023/02/26 07:09:37;;;;;;;0.60;0.52;;;-0.90;99.90;;;;;;4969247;28;20037;-75
2023/02/26 07:12:03;;;;;;;3.42;0.75;;;-0.80;99.90;;;;;;4972493;28;20043;-75
2023/02/26 07:14:29;;;;;;;0.63;0.35;;;-0.80;99.90;;;;;;4961790;28;20031;-74
2023/02/26 07:16:55;;;;;;;1.48;0.73;;;-0.70;99.90;;;;;;4958687;28;20436;-75
2023/02/26 07:19:21;;;;;;;1.15;0.80;;;-0.80;99.90;;;;;;4966853;28;20105;-74
2023/02/26 07:21:47;;;;;;;2.08;1.50;;;-0.80;99.90;;;;;;4967454;28;20035;-74
2023/02/26 07:24:13;;;;;;;2.60;1.20;;;-0.70;99.90;;;;;;4963069;28;20200;-71
2023/02/26 07:26:39;;;;;;;0.50;0.50;;;-0.70;99.90;;;;;;4969469;28;20042;-72
2023/02/26 07:29:05;;;;;;;1.23;0.88;;;-0.60;99.90;;;;;;4966367;28;20490;-73
2023/02/26 07:31:31;;;;;;;1.38;0.57;;;-0.50;99.90;;;;;;4963047;28;20113;-74
2023/02/26 07:33:57;;;;;;;1.55;0.88;;;-0.40;99.90;;;;;;4970256;28;20066;-74
2023/02/26 07:36:23;;;;;;;2.03;1.17;;;-0.30;99.90;;;;;;4967563;28;20093;-74
2023/02/26 07:38:48;;;;;;;0.82;0.82;;;-0.30;99.90;;;;;;4958676;28;20086;-77
2023/02/26 07:41:14;;;;;;;2.75;1.00;;;-0.10;99.90;;;;;;4955985;28;20479;-75
2023/02/26 07:43:41;;;;;;;2.35;1.38;;;0.00;99.90;;;;;;4958007;28;20041;-75
2023/02/26 07:46:07;;;;;;;3.85;2.17;;;0.00;99.90;;;;;;4965801;28;20118;-74
2023/02/26 07:48:33;;;;;;;1.20;0.98;;;0.00;99.90;;;;;;4961346;28;20483;-74
2023/02/26 07:50:59;;;;;;;0.77;0.77;;;0.00;99.90;;;;;;4968389;28;20028;-70
2023/02/26 07:53:25;;;;;;;2.70;1.25;;;0.20;99.90;;;;;;4965573;28;20027;-69
2023/02/26 07:55:51;;;;;;;17.75;0.82;;;0.30;99.90;;;;;;4966412;28;20039;-69
2023/02/26 07:58:17;;;;;;;2.38;1.75;;;0.40;99.90;;;;;;4968835;28;20030;-69
2023/02/26 08:00:44;;;;;;;2.47;1.30;;;0.20;99.90;;;;;;4954101;28;20027;-70
2023/02/26 08:03:09;;;;;;;5.97;2.58;;;0.30;99.90;;;;;;4964671;28;20483;-70
2023/02/26 08:05:35;;;;;;;7.63;1.90;;;0.30;99.90;;;;;;4959791;28;20098;-72
2023/02/26 08:08:02;;;;;;;0.77;0.77;;;0.50;99.90;;;;;;4968905;28;20035;-69
2023/02/26 08:10:29;;;;;;;1.42;1.08;;;0.50;99.90;;;;;;4966900;28;20027;-69
2023/02/26 08:12:54;;;;;;;4.82;1.63;;;0.60;99.90;;;;;;4971456;28;20041;-69
2023/02/26 08:15:20;;;;;;;5.93;1.05;;;0.50;99.90;;;;;;4965918;28;20030;-67
2023/02/26 08:17:46;;;;;;;9.15;1.55;;;0.60;99.90;;;;;;4966320;28;20122;-70
2023/02/26 08:20:14;;;;;;;3.65;1.52;;;0.70;99.90;;;;;;4962482;28;20074;-70
2023/02/26 08:22:40;;;;;;;5.82;1.90;;;0.80;99.90;;;;;;4965913;28;20035;-70
2023/02/26 08:25:06;;;;;;;7.20;1.58;;;0.90;99.90;;;;;;4965143;28;20471;-70
2023/02/26 08:27:32;;;;;;;2.72;1.55;;;1.00;99.90;;;;;;4966241;28;20031;-69
2023/02/26 08:29:58;;;;;;;1.73;0.95;;;1.00;99.90;;;;;;4961792;28;20027;-71
2023/02/26 08:32:26;;;;;;;3.40;0.63;;;1.10;99.90;;;;;;4970808;28;20039;-70
2023/02/26 08:34:52;;;;;;;1.88;0.98;;;1.10;99.90;;;;;;4970423;28;20031;-70
2023/02/26 08:37:20;;;;;;;3.55;0.93;;;1.20;99.90;;;;;;4965241;28;20026;-77
2023/02/26 08:39:46;;;;;;;1.02;0.80;;;1.30;99.90;;;;;;4965400;28;20110;-70
2023/02/26 08:42:15;;;;;;;8.80;2.38;;;1.50;99.90;;;;;;4964283;28;20511;-71
2023/02/26 08:44:42;;;;;;;2.65;1.17;;;1.50;99.90;;;;;;4969131;28;20018;-69
2023/02/26 08:47:08;;;;;;;0.68;0.57;;;1.70;99.90;;;;;;4953897;28;20399;-69
2023/02/26 08:49:33;;;;;;;4.70;1.20;;;1.90;99.90;;;;;;4971000;28;20034;-71
2023/02/26 08:51:59;;;;;;;0.98;0.85;;;2.00;99.90;;;;;;4955813;28;20046;-69
2023/02/26 08:54:25;;;;;;;4.85;2.05;;;1.90;99.90;;;;;;4965455;28;20035;-69
2023/02/26 08:56:56;;;;;;;1.85;0.93;;;1.90;99.90;;;;;;4935979;28;20472;-69
2023/02/26 08:59:23;;;;;;;0.65;0.50;;;1.90;99.90;;;;;;4962249;28;20612;-68
2023/02/26 09:01:49;;;;;;;4.45;1.13;;;2.00;99.90;;;;;;4961141;28;20043;-68
2023/02/26 09:04:15;;;;;;;12.38;1.33;;;1.80;99.90;;;;;;4968977;28;20027;-71
2023/02/26 09:06:41;;;;;;;5.65;0.93;;;1.80;99.90;;;;;;4963446;28;20067;-70
2023/02/26 09:09:07;;;;;;;1.77;0.35;;;1.90;99.90;;;;;;4966720;28;20051;-68
2023/02/26 09:11:33;;;;;;;0.68;0.68;;;1.90;99.90;;;;;;4957635;28;20098;-69
2023/02/26 09:14:01;;;;;;;0.55;0.55;;;1.70;99.90;;;;;;4958645;28;20042;-71
2023/02/26 09:16:26;;;;;;;1.55;0.80;;;2.00;99.90;;;;;;4969337;28;20101;-72
2023/02/26 09:18:52;;;;;;;3.20;1.23;;;1.80;99.90;;;;;;4963877;28;20606;-70
2023/02/26 09:21:18;;;;;;;1.92;0.82;;;2.00;99.90;;;;;;4962154;28;20043;-69
2023/02/26 09:23:44;;;;;;;1.55;1.45;;;2.00;99.90;;;;;;4954920;28;20032;-68
2023/02/26 09:26:09;;;;;;;0.88;0.60;;;2.30;99.90;;;;;;4962612;28;20119;-68
2023/02/26 09:28:35;;;;;;;3.80;1.20;;;2.20;99.90;;;;;;4969489;28;20391;-70
2023/02/26 09:31:01;;;;;;;0.55;0.55;;;2.20;99.90;;;;;;4969225;28;20141;-69
2023/02/26 09:33:26;;;;;;;0.95;0.45;;;2.10;99.90;;;;;;4953861;28;20028;-69
2023/02/26 09:35:52;;;;;;;1.27;0.77;;;2.10;99.90;;;;;;4967031;28;20034;-69
2023/02/26 09:38:19;;;;;;;2.65;0.93;;;2.10;99.90;;;;;;4966490;28;20030;-70
2023/02/26 09:41:04;;;;;;;1.00;0.60;;;2.20;99.90;;;;;;4967978;28;20487;-70
2023/02/26 09:44:02;;;;;;;0.88;0.80;;;2.30;99.90;;;;;;4954552;28;20035;-72
2023/02/26 09:46:48;;;;;;;0.55;0.55;;;2.40;99.90;;;;;;4965538;28;20038;-70
2023/02/26 09:49:55;;;;;;;1.38;0.82;;;2.90;99.90;;;;;;4957585;28;20101;-68
2023/02/26 09:52:53;;;;;;;0.82;0.50;;;3.10;99.90;;;;;;4943635;28;20414;-69
2023/02/26 09:55:34;;;;;;;0.30;0.30;;;3.10;99.90;;;;;;4963676;28;20034;-69
2023/02/26 09:58:06;;;;;;;0.82;0.40;;;3.60;99.90;;;;;;4967651;28;20035;-69
2023/02/26 10:01:01;;;;;;;0.43;0.35;;;3.70;99.90;;;;;;4969651;28;20479;-70
2023/02/26 10:04:17;;;;;;;13.07;0.55;;;3.90;99.90;;;;;;4953246;28;20096;-68
2023/02/26 10:07:20;;;;;;;3.08;0.95;;;4.00;99.90;;;;;;4967652;28;20042;-69
2023/02/26 10:10:04;;;;;;;0.20;0.20;;;4.10;99.90;;;;;;4968561;28;20113;-69
2023/02/26 10:12:35;;;;;;;0.80;0.50;;;4.30;99.90;;;;;;4952357;28;20027;-70
2023/02/26 10:15:27;;;;;;;3.08;0.50;;;4.60;99.90;;;;;;4963878;28;20023;-69
2023/02/26 10:18:20;;;;;;;0.40;0.40;;;4.80;99.90;;;;;;4969234;28;20027;-71
2023/02/26 10:21:08;;;;;;;1.02;0.73;;;4.70;99.90;;;;;;4963233;28;20402;-69
2023/02/26 10:23:49;;;;;;;1.35;0.73;;;5.00;99.90;;;;;;4968912;28;20046;-71
2023/02/26 10:26:21;;;;;;;;;;;5.20;99.60;;;;;;4963669;28;20053;-68
2023/02/26 10:29:19;;;;;;;6.70;1.05;;;4.30;99.90;;;;;;4968797;28;19914;-69
2023/02/26 10:32:17;;;;;;;0.40;0.40;;;4.60;99.90;;;;;;4967636;28;20035;-71
2023/02/26 10:35:05;;;;;;;6.45;0.50;;;4.30;99.90;;;;;;4968328;28;20082;-68
2023/02/26 10:37:50;;;;;;;1.60;0.30;;;4.80;99.90;;;;;;4969859;28;20043;-68
2023/02/26 10:40:48;;;;;;;0.77;0.52;;;4.60;99.40;;;;;;4963154;28;20034;-72
2023/02/26 10:43:48;;;;;;;1.73;0.38;;;5.00;99.20;;;;;;4968135;28;20026;-72
2023/02/26 10:47:01;;;;;;;1.00;0.35;;;4.80;99.30;;;;;;4957591;28;20906;-71
2023/02/26 10:49:52;;;;;;;0.10;0.10;;;4.80;99.00;;;;;;4961145;28;20411;-70
2023/02/26 10:52:28;;;;;;;0.63;0.40;;;4.90;99.00;;;;;;4966705;28;20035;-70
2023/02/26 10:55:06;;;;;;;0.43;0.32;;;4.90;98.90;;;;;;4968733;28;20031;-70
2023/02/26 10:57:39;;;;;;;0.90;0.47;;;4.90;99.10;;;;;;4963792;28;20038;-76
2023/02/26 11:00:13;;;;;;;0.63;0.38;;;4.90;98.90;;;;;;4962048;28;20039;-70
2023/02/26 11:02:43;;;;;;;7.65;2.65;;;5.30;98.30;;;;;;4950728;28;20039;-70
2023/02/26 11:05:27;;;;;;;0.28;0.28;;;4.90;98.10;;;;;;4967769;28;20458;-70
2023/02/26 11:08:02;;;;;;;16.00;0.85;;;4.50;98.80;;;;;;4957804;28;20058;-70
2023/02/26 11:10:46;;;;;;;0.45;0.22;;;4.50;98.60;;;;;;4966129;28;20027;-70
2023/02/26 11:13:11;;;;;;;0.85;0.40;;;5.00;98.00;;;;;;4958237;28;20039;-70
2023/02/26 11:15:38;;;;;;;0.73;0.40;;;5.50;98.00;;;;;;4963690;28;20108;-70
2023/02/26 11:18:04;;;;;;;0.28;0.20;;;5.60;97.50;;;;;;4969271;28;20035;-70
2023/02/26 11:20:40;;;;;;;1.67;0.57;;;6.00;96.90;;;;;;4969267;28;20542;-71
2023/02/26 11:23:13;;;;;;;1.17;0.30;;;7.30;96.50;;;;;;4960246;28;20431;-70
2023/02/26 11:25:39;;;;;;;0.85;0.47;;;7.10;94.50;;;;;;4965454;28;20026;-70
2023/02/26 11:28:36;;;;;;;1.85;0.50;;;7.30;94.40;;;;;;4972461;28;20106;-71
2023/02/26 11:31:09;;;;;;;2.30;0.52;;;7.10;94.30;;;;;;4954329;28;20066;-68
2023/02/26 11:33:44;;;;;;;3.72;0.68;;;6.70;93.50;;;;;;4971972;28;20054;-70
2023/02/26 11:36:22;;;;;;;0.38;0.25;;;7.00;94.00;;;;;;4966232;28;20038;-69
2023/02/26 11:39:00;;;;;;;1.13;0.20;;;7.90;91.80;;;;;;4968793;28;20046;-68
2023/02/26 11:41:28;;;;;;;0.10;0.10;;;7.00;91.10;;;;;;4967814;28;20051;-68
2023/02/26 11:44:13;;;;;;;0.80;0.20;;;7.40;91.40;;;;;;4970698;28;20038;-69
2023/02/26 11:47:02;;;;;;;1.95;0.32;;;6.10;92.40;;;;;;4967706;28;20443;-69
2023/02/26 11:49:28;;;;;;;1.70;0.28;;;6.00;93.00;;;;;;4967329;28;20033;-67
2023/02/26 11:52:32;;;;;;;0.85;0.28;;;6.40;92.60;;;;;;4973926;28;20117;-69
2023/02/26 11:55:17;;;;;;;0.20;0.20;;;5.80;93.40;;;;;;4970085;28;20126;-73
2023/02/26 11:57:43;;;;;;;0.52;0.40;;;7.20;93.60;;;;;;4969820;28;20368;-69
2023/02/26 12:00:31;;;;;;;2.83;0.40;;;7.90;92.60;;;;;;4970301;28;20038;-69
2023/02/26 12:03:07;;;;;;;0.47;0.38;;;7.30;92.80;;;;;;4954686;28;20478;-70
2023/02/26 12:05:33;;;;;;;0.20;0.20;;;6.10;94.00;;;;;;4993695;23;20047;-72
2023/02/26 12:08:02;;;;;;;0.47;0.17;;;5.50;95.00;;;;;;4996143;28;20041;-74
2023/02/26 12:11:12;;;;;;;5.32;0.55;;;5.50;95.00;;;;;;4994944;28;20818;-75
2023/02/26 12:14:06;;;;;;;1.55;0.80;;;5.50;95.20;;;;;;5000616;28;20452;-70
2023/02/26 12:17:20;;;;;;;0.45;0.30;;;5.30;96.00;;;;;;5010685;28;20025;-69
2023/02/26 12:20:25;;;;;;;1.75;0.60;;;5.30;96.00;;;;;;4992809;28;20092;-72
2023/02/26 12:23:24;;;;;;;0.45;0.15;;;4.90;97.10;;;;;;5002758;28;20221;-73
2023/02/26 12:26:08;;;;;;;0.40;0.40;;;4.50;97.50;;;;;;5010143;28;20101;-75
2023/02/26 12:29:01;;;;;;;0.40;0.40;;;4.30;97.20;;;;;;5005620;28;20065;-74
2023/02/26 12:31:58;;;;;;;0.10;0.10;;;4.00;97.10;;;;;;5006844;28;20128;-72
2023/02/26 12:34:33;;;;;;;0.05;0.05;;;4.20;97.30;;;;;;4955802;28;20042;-74
2023/02/26 12:37:42;;;;;;;0.10;0.10;;;4.20;97.50;;;;;;5010331;28;20057;-76
2023/02/26 12:40:40;;;;;;;0.10;0.10;;;4.50;97.10;;;;;;5006842;28;20042;-74
2023/02/26 12:43:31;;;;;;;2.25;0.32;;;4.80;97.00;;;;;;5002651;28;20025;-74
2023/02/26 12:46:30;;;;;;;0.28;0.28;;;4.70;96.70;;;;;;5008146;28;20034;-75
2023/02/26 12:49:36;;;;;;;0.20;0.20;;;5.40;96.20;;;;;;5011484;28;20044;-75
2023/02/26 12:52:22;;;;;;;2.42;0.80;;;7.10;93.30;;;;;;5009851;28;20034;-74
2023/02/26 12:55:26;;;;;;;0.30;0.10;;;7.40;92.00;;;;;;4977003;28;20030;-76
2023/02/26 12:58:15;;;;;;;0.85;0.85;;;6.90;92.00;;;;;;5014719;28;20038;-75
2023/02/26 13:01:08;;;;;;;0.82;0.35;;;5.80;92.90;;;;;;5009563;28;20038;-69
2023/02/26 13:04:00;;;;;;;0.22;0.20;;;6.10;93.50;;;;;;5006293;28;20041;-67
2023/02/26 13:07:28;;;;;;;0.75;0.20;;;7.20;91.50;;;;;;5010220;28;20038;-68
2023/02/26 13:10:18;;;;;;;0.10;0.05;;;8.30;90.30;;;;;;4931529;29;20524;-68
2023/02/26 13:13:09;;;;;;;0.40;0.20;;;8.40;86.50;;;;;;4928191;29;20042;-65
2023/02/26 13:16:17;;;;;;;0.73;0.30;;;8.20;88.40;;;;;;4997490;28;20121;-66
2023/02/26 13:19:22;;;;;;;0.95;0.50;;;7.90;89.90;;;;;;5001184;28;20117;-70
2023/02/26 13:22:03;;;;;;;0.82;0.20;;;8.30;90.30;;;;;;5006990;28;20046;-70
2023/02/26 13:24:45;;;;;;;0.40;0.10;;;9.30;97.20;;;;;;4991737;28;20026;-70
2023/02/26 13:27:13;;;;;;;0.60;0.30;;;8.90;92.00;;;;;;4994744;28;20029;-68
2023/02/26 13:29:54;;;;;;;0.20;0.20;;;7.70;91.50;;;;;;5008864;28;20045;-68
2023/02/26 13:32:26;;;;;;;0.32;0.10;;;7.30;91.10;;;;;;4994468;28;20021;-69
2023/02/26 13:35:15;;;;;;;1.05;0.40;;;7.90;92.60;;;;;;4992286;28;20042;-69